sensor_id;sensor_type;location;lat;lon;timestamp;P1;durP1;ratioP1;P2;durP2;ratioP2
57893;SDS011;43710;47.460;19.034;2023-04-12T03:59:47;5.30;;;4.22;;
57893;SDS011;43710;47.460;19.034;2023-04-12T04:02:52;7.28;;;4.32;;
57893;SDS011;43710;47.460;19.034;2023-04-12T04:05:55;7.57;;;4.70;;
57893;SDS011;43710;47.460;19.034;2023-04-12T04:08:57;7.80;;;4.32;;
57893;SDS011;43710;47.460;19.034;2023-04-12T04:12:01;7.43;;;4.45;;
57893;SDS011;43710;47.460;19.034;2023-04-12T04:15:04;5.10;;;3.72;;
57893;SDS011;43710;47.460;19.034;2023-04-12T04:18:07;5.45;;;3.80;;
57893;SDS011;43710;47.460;19.034;2023-04-12T04:21:10;6.22;;;3.62;;
57893;SDS011;43710;47.460;19.034;2023-04-12T04:24:15;5.50;;;3.60;;
57893;SDS011;43710;47.460;19.034;2023-04-12T04:27:19;5.75;;;3.92;;
57893;SDS011;43710;47.460;19.034;2023-04-12T04:30:23;3.47;;;2.92;;
57893;SDS011;43710;47.460;19.034;2023-04-12T04:33:26;4.93;;;3.60;;
57893;SDS011;43710;47.460;19.034;2023-04-12T04:36:31;3.65;;;2.97;;
57893;SDS011;43710;47.460;19.034;2023-04-12T04:39:34;5.72;;;3.53;;
57893;SDS011;43710;47.460;19.034;2023-04-12T04:42:37;5.72;;;3.72;;
57893;SDS011;43710;47.460;19.034;2023-04-12T04:45:41;7.78;;;3.87;;
57893;SDS011;43710;47.460;19.034;2023-04-12T04:48:43;4.62;;;3.50;;
57893;SDS011;43710;47.460;19.034;2023-04-12T04:51:46;8.93;;;3.67;;
57893;SDS011;43710;47.460;19.034;2023-04-12T04:54:49;4.37;;;3.28;;
57893;SDS011;43710;47.460;19.034;2023-04-12T04:57:52;5.30;;;3.58;;
57893;SDS011;43710;47.460;19.034;2023-04-12T05:00:55;5.20;;;3.05;;
57893;SDS011;43710;47.460;19.034;2023-04-12T05:03:59;3.85;;;2.50;;
57893;SDS011;43710;47.460;19.034;2023-04-12T05:07:02;5.43;;;2.75;;
57893;SDS011;43710;47.460;19.034;2023-04-12T05:10:04;5.32;;;3.17;;
57893;SDS011;43710;47.460;19.034;2023-04-12T05:13:08;5.87;;;2.85;;
57893;SDS011;43710;47.460;19.034;2023-04-12T05:16:11;5.12;;;3.00;;
57893;SDS011;43710;47.460;19.034;2023-04-12T05:19:14;5.10;;;3.20;;
57893;SDS011;43710;47.460;19.034;2023-04-12T05:22:18;4.00;;;2.72;;
57893;SDS011;43710;47.460;19.034;2023-04-12T05:25:24;6.37;;;3.12;;
57893;SDS011;43710;47.460;19.034;2023-04-12T05:28:28;6.05;;;3.10;;
57893;SDS011;43710;47.460;19.034;2023-04-12T05:31:31;8.05;;;3.50;;
57893;SDS011;43710;47.460;19.034;2023-04-12T05:34:35;4.22;;;2.53;;
57893;SDS011;43710;47.460;19.034;2023-04-12T05:37:38;5.15;;;2.97;;
57893;SDS011;43710;47.460;19.034;2023-04-12T05:40:41;4.75;;;2.85;;
57893;SDS011;43710;47.460;19.034;2023-04-12T05:43:49;4.22;;;2.85;;
57893;SDS011;43710;47.460;19.034;2023-04-12T05:46:53;4.22;;;2.80;;
57893;SDS011;43710;47.460;19.034;2023-04-12T05:53:02;3.35;;;2.30;;
57893;SDS011;43710;47.460;19.034;2023-04-12T05:56:06;6.12;;;2.60;;
57893;SDS011;43710;47.460;19.034;2023-04-12T05:59:08;4.00;;;2.62;;
57893;SDS011;43710;47.460;19.034;2023-04-12T06:02:12;3.47;;;2.60;;
57893;SDS011;43710;47.460;19.034;2023-04-12T06:05:16;3.53;;;2.60;;
57893;SDS011;43710;47.460;19.034;2023-04-12T06:08:19;2.87;;;2.35;;
57893;SDS011;43710;47.460;19.034;2023-04-12T06:11:22;4.90;;;2.42;;
57893;SDS011;43710;47.460;19.034;2023-04-12T06:14:27;5.03;;;2.75;;
57893;SDS011;43710;47.460;19.034;2023-04-12T06:17:30;5.85;;;2.45;;
57893;SDS011;43710;47.460;19.034;2023-04-12T06:20:32;3.00;;;2.40;;
57893;SDS011;43710;47.460;19.034;2023-04-12T06:23:38;4.40;;;2.42;;
57893;SDS011;43710;47.460;19.034;2023-04-12T06:26:41;3.42;;;2.50;;
57893;SDS011;43710;47.460;19.034;2023-04-12T06:29:50;4.65;;;2.35;;
57893;SDS011;43710;47.460;19.034;2023-04-12T06:32:54;3.47;;;2.33;;
57893;SDS011;43710;47.460;19.034;2023-04-12T06:36:01;3.35;;;2.40;;
57893;SDS011;43710;47.460;19.034;2023-04-12T06:39:09;7.32;;;2.50;;
57893;SDS011;43710;47.460;19.034;2023-04-12T06:42:16;7.35;;;2.55;;
57893;SDS011;43710;47.460;19.034;2023-04-12T06:45:19;6.18;;;2.20;;
57893;SDS011;43710;47.460;19.034;2023-04-12T06:48:23;3.75;;;2.33;;
57893;SDS011;43710;47.460;19.034;2023-04-12T06:51:27;2.55;;;1.90;;
57893;SDS011;43710;47.460;19.034;2023-04-12T06:54:38;2.55;;;2.00;;
57893;SDS011;43710;47.460;19.034;2023-04-12T06:57:42;2.95;;;2.10;;
57893;SDS011;43710;47.460;19.034;2023-04-12T07:00:47;3.12;;;2.00;;
57893;SDS011;43710;47.460;19.034;2023-04-12T07:03:52;5.10;;;2.53;;
57893;SDS011;43710;47.460;19.034;2023-04-12T07:06:58;3.40;;;2.17;;
57893;SDS011;43710;47.460;19.034;2023-04-12T07:10:01;5.00;;;2.55;;
57893;SDS011;43710;47.460;19.034;2023-04-12T07:13:06;4.32;;;2.30;;
57893;SDS011;43710;47.460;19.034;2023-04-12T07:16:09;3.20;;;2.30;;
57893;SDS011;43710;47.460;19.034;2023-04-12T07:19:15;2.80;;;2.05;;
57893;SDS011;43710;47.460;19.034;2023-04-12T07:22:19;4.00;;;2.47;;
57893;SDS011;43710;47.460;19.034;2023-04-12T07:25:23;4.30;;;2.17;;
57893;SDS011;43710;47.460;19.034;2023-04-12T07:28:26;5.12;;;2.20;;
57893;SDS011;43710;47.460;19.034;2023-04-12T07:31:29;5.03;;;2.37;;
57893;SDS011;43710;47.460;19.034;2023-04-12T07:34:31;3.53;;;2.15;;
57893;SDS011;43710;47.460;19.034;2023-04-12T07:37:34;4.07;;;2.42;;
57893;SDS011;43710;47.460;19.034;2023-04-12T07:40:37;5.32;;;2.72;;
57893;SDS011;43710;47.460;19.034;2023-04-12T07:43:40;2.92;;;2.35;;
57893;SDS011;43710;47.460;19.034;2023-04-12T07:46:42;3.85;;;2.30;;
57893;SDS011;43710;47.460;19.034;2023-04-12T07:49:45;2.87;;;2.10;;
57893;SDS011;43710;47.460;19.034;2023-04-12T07:52:48;4.28;;;2.25;;
57893;SDS011;43710;47.460;19.034;2023-04-12T07:55:51;3.20;;;2.30;;
57893;SDS011;43710;47.460;19.034;2023-04-12T07:58:53;3.87;;;2.65;;
57893;SDS011;43710;47.460;19.034;2023-04-12T08:01:56;4.22;;;2.40;;
57893;SDS011;43710;47.460;19.034;2023-04-12T08:04:59;3.40;;;2.45;;
57893;SDS011;43710;47.460;19.034;2023-04-12T08:08:02;8.93;;;3.47;;
57893;SDS011;43710;47.460;19.034;2023-04-12T08:11:05;5.07;;;3.20;;
57893;SDS011;43710;47.460;19.034;2023-04-12T08:14:07;4.35;;;2.45;;
57893;SDS011;43710;47.460;19.034;2023-04-12T08:17:11;3.20;;;2.45;;
57893;SDS011;43710;47.460;19.034;2023-04-12T08:20:13;3.92;;;2.50;;
57893;SDS011;43710;47.460;19.034;2023-04-12T08:23:19;6.93;;;2.67;;
57893;SDS011;43710;47.460;19.034;2023-04-12T08:26:22;5.15;;;2.78;;
57893;SDS011;43710;47.460;19.034;2023-04-12T08:29:24;2.75;;;2.22;;
57893;SDS011;43710;47.460;19.034;2023-04-12T08:32:26;4.45;;;2.80;;
57893;SDS011;43710;47.460;19.034;2023-04-12T08:35:29;5.25;;;2.60;;
57893;SDS011;43710;47.460;19.034;2023-04-12T08:38:31;5.10;;;2.20;;
57893;SDS011;43710;47.460;19.034;2023-04-12T08:41:38;4.32;;;2.15;;
57893;SDS011;43710;47.460;19.034;2023-04-12T08:44:40;4.32;;;2.20;;
57893;SDS011;43710;47.460;19.034;2023-04-12T08:47:43;4.97;;;2.20;;
57893;SDS011;43710;47.460;19.034;2023-04-12T08:50:46;4.30;;;2.60;;
57893;SDS011;43710;47.460;19.034;2023-04-12T08:53:51;3.23;;;2.23;;
57893;SDS011;43710;47.460;19.034;2023-04-12T08:56:55;5.25;;;2.45;;
57893;SDS011;43710;47.460;19.034;2023-04-12T09:00:01;4.87;;;2.67;;
57893;SDS011;43710;47.460;19.034;2023-04-12T09:03:05;2.83;;;2.00;;
57893;SDS011;43710;47.460;19.034;2023-04-12T09:06:12;3.12;;;2.37;;
57893;SDS011;43710;47.460;19.034;2023-04-12T09:09:14;3.95;;;2.35;;
57893;SDS011;43710;47.460;19.034;2023-04-12T09:12:17;3.80;;;2.37;;
57893;SDS011;43710;47.460;19.034;2023-04-12T09:15:21;5.80;;;2.47;;
57893;SDS011;43710;47.460;19.034;2023-04-12T09:18:23;3.33;;;2.20;;
57893;SDS011;43710;47.460;19.034;2023-04-12T09:21:28;3.40;;;2.40;;
57893;SDS011;43710;47.460;19.034;2023-04-12T09:24:40;4.25;;;2.20;;
57893;SDS011;43710;47.460;19.034;2023-04-12T09:27:51;5.60;;;2.62;;
57893;SDS011;43710;47.460;19.034;2023-04-12T09:30:56;5.20;;;2.85;;
57893;SDS011;43710;47.460;19.034;2023-04-12T09:34:06;4.15;;;2.60;;
57893;SDS011;43710;47.460;19.034;2023-04-12T09:37:13;5.75;;;2.70;;
57893;SDS011;43710;47.460;19.034;2023-04-12T09:40:17;4.62;;;2.55;;
57893;SDS011;43710;47.460;19.034;2023-04-12T09:43:36;4.20;;;2.78;;
57893;SDS011;43710;47.460;19.034;2023-04-12T09:46:48;4.78;;;2.87;;
57893;SDS011;43710;47.460;19.034;2023-04-12T09:49:53;4.03;;;2.40;;
57893;SDS011;43710;47.460;19.034;2023-04-12T09:52:55;5.70;;;2.37;;
57893;SDS011;43710;47.460;19.034;2023-04-12T09:56:00;5.68;;;2.55;;
57893;SDS011;43710;47.460;19.034;2023-04-12T09:59:05;4.87;;;2.35;;
57893;SDS011;43710;47.460;19.034;2023-04-12T10:02:15;4.35;;;2.05;;
57893;SDS011;43710;47.460;19.034;2023-04-12T10:05:24;4.43;;;2.55;;
57893;SDS011;43710;47.460;19.034;2023-04-12T10:08:28;3.87;;;2.50;;
57893;SDS011;43710;47.460;19.034;2023-04-12T10:11:35;5.57;;;2.47;;
57893;SDS011;43710;47.460;19.034;2023-04-12T10:14:38;3.25;;;2.35;;
57893;SDS011;43710;47.460;19.034;2023-04-12T10:17:44;5.10;;;2.95;;
57893;SDS011;43710;47.460;19.034;2023-04-12T10:20:53;4.40;;;2.85;;
57893;SDS011;43710;47.460;19.034;2023-04-12T10:23:56;3.72;;;2.45;;
57893;SDS011;43710;47.460;19.034;2023-04-12T10:26:59;6.22;;;2.37;;
57893;SDS011;43710;47.460;19.034;2023-04-12T10:30:18;5.35;;;2.28;;
57893;SDS011;43710;47.460;19.034;2023-04-12T10:33:24;4.25;;;2.60;;
57893;SDS011;43710;47.460;19.034;2023-04-12T10:39:54;3.62;;;2.40;;
57893;SDS011;43710;47.460;19.034;2023-04-12T10:46:45;3.95;;;2.20;;
57893;SDS011;43710;47.460;19.034;2023-04-12T10:53:41;4.47;;;2.65;;
57893;SDS011;43710;47.460;19.034;2023-04-12T10:56:46;6.78;;;2.75;;
57893;SDS011;43710;47.460;19.034;2023-04-12T11:03:06;7.28;;;2.60;;
57893;SDS011;43710;47.460;19.034;2023-04-12T11:06:10;3.90;;;2.15;;
57893;SDS011;43710;47.460;19.034;2023-04-12T11:12:34;7.15;;;2.85;;
57893;SDS011;43710;47.460;19.034;2023-04-12T11:15:38;4.37;;;2.55;;
57893;SDS011;43710;47.460;19.034;2023-04-12T11:21:47;5.03;;;2.30;;
57893;SDS011;43710;47.460;19.034;2023-04-12T11:24:51;3.90;;;2.10;;
57893;SDS011;43710;47.460;19.034;2023-04-12T11:27:55;5.50;;;2.37;;
57893;SDS011;43710;47.460;19.034;2023-04-12T11:30:59;6.28;;;2.50;;
57893;SDS011;43710;47.460;19.034;2023-04-12T11:34:02;3.47;;;2.50;;
57893;SDS011;43710;47.460;19.034;2023-04-12T11:37:05;5.05;;;2.55;;
57893;SDS011;43710;47.460;19.034;2023-04-12T11:40:11;5.80;;;2.90;;
57893;SDS011;43710;47.460;19.034;2023-04-12T11:43:19;5.15;;;2.50;;
57893;SDS011;43710;47.460;19.034;2023-04-12T11:46:25;3.83;;;2.12;;
57893;SDS011;43710;47.460;19.034;2023-04-12T11:49:35;4.93;;;2.50;;
57893;SDS011;43710;47.460;19.034;2023-04-12T11:52:37;2.95;;;1.92;;
57893;SDS011;43710;47.460;19.034;2023-04-12T11:55:51;4.87;;;2.53;;
57893;SDS011;43710;47.460;19.034;2023-04-12T11:58:58;5.28;;;2.00;;
57893;SDS011;43710;47.460;19.034;2023-04-12T12:02:01;4.75;;;2.08;;
57893;SDS011;43710;47.460;19.034;2023-04-12T12:05:23;5.70;;;2.35;;
57893;SDS011;43710;47.460;19.034;2023-04-12T12:08:25;4.97;;;3.22;;
57893;SDS011;43710;47.460;19.034;2023-04-12T12:11:29;5.18;;;2.37;;
57893;SDS011;43710;47.460;19.034;2023-04-12T12:14:33;8.65;;;2.42;;
57893;SDS011;43710;47.460;19.034;2023-04-12T12:17:38;3.50;;;2.20;;
57893;SDS011;43710;47.460;19.034;2023-04-12T12:20:41;2.78;;;1.75;;
57893;SDS011;43710;47.460;19.034;2023-04-12T12:23:51;7.47;;;2.00;;
57893;SDS011;43710;47.460;19.034;2023-04-12T12:26:53;4.12;;;1.77;;
57893;SDS011;43710;47.460;19.034;2023-04-12T12:29:58;2.40;;;1.80;;
57893;SDS011;43710;47.460;19.034;2023-04-12T12:33:05;5.70;;;1.90;;
57893;SDS011;43710;47.460;19.034;2023-04-12T12:36:08;3.53;;;2.00;;
57893;SDS011;43710;47.460;19.034;2023-04-12T12:39:11;3.97;;;2.03;;
57893;SDS011;43710;47.460;19.034;2023-04-12T12:42:14;4.45;;;1.90;;
57893;SDS011;43710;47.460;19.034;2023-04-12T12:45:17;4.80;;;1.75;;
57893;SDS011;43710;47.460;19.034;2023-04-12T12:48:21;3.47;;;1.83;;
57893;SDS011;43710;47.460;19.034;2023-04-12T12:51:24;3.58;;;1.70;;
57893;SDS011;43710;47.460;19.034;2023-04-12T12:54:28;5.25;;;1.77;;
57893;SDS011;43710;47.460;19.034;2023-04-12T12:57:42;3.28;;;1.65;;
57893;SDS011;43710;47.460;19.034;2023-04-12T13:00:56;2.40;;;1.40;;
57893;SDS011;43710;47.460;19.034;2023-04-12T13:03:58;6.35;;;2.30;;
57893;SDS011;43710;47.460;19.034;2023-04-12T13:07:01;5.20;;;2.08;;
57893;SDS011;43710;47.460;19.034;2023-04-12T13:10:04;3.03;;;1.80;;
57893;SDS011;43710;47.460;19.034;2023-04-12T13:13:07;3.80;;;1.85;;
57893;SDS011;43710;47.460;19.034;2023-04-12T13:16:09;4.82;;;1.90;;
57893;SDS011;43710;47.460;19.034;2023-04-12T13:19:13;3.33;;;1.87;;
57893;SDS011;43710;47.460;19.034;2023-04-12T13:22:16;5.45;;;1.75;;
57893;SDS011;43710;47.460;19.034;2023-04-12T13:25:19;2.80;;;1.70;;
57893;SDS011;43710;47.460;19.034;2023-04-12T13:28:22;2.05;;;1.17;;
57893;SDS011;43710;47.460;19.034;2023-04-12T13:31:24;6.03;;;1.95;;
57893;SDS011;43710;47.460;19.034;2023-04-12T13:34:27;4.87;;;1.75;;
57893;SDS011;43710;47.460;19.034;2023-04-12T13:37:30;2.55;;;1.50;;
57893;SDS011;43710;47.460;19.034;2023-04-12T13:40:32;2.25;;;1.27;;
57893;SDS011;43710;47.460;19.034;2023-04-12T13:43:34;5.05;;;1.37;;
57893;SDS011;43710;47.460;19.034;2023-04-12T13:46:37;5.28;;;1.62;;
57893;SDS011;43710;47.460;19.034;2023-04-12T13:49:39;5.93;;;1.80;;
57893;SDS011;43710;47.460;19.034;2023-04-12T13:52:41;2.67;;;1.50;;
57893;SDS011;43710;47.460;19.034;2023-04-12T13:55:44;4.68;;;1.55;;
57893;SDS011;43710;47.460;19.034;2023-04-12T13:58:47;2.30;;;1.35;;
57893;SDS011;43710;47.460;19.034;2023-04-12T14:01:49;3.47;;;1.75;;
57893;SDS011;43710;47.460;19.034;2023-04-12T14:04:52;3.03;;;1.50;;
57893;SDS011;43710;47.460;19.034;2023-04-12T14:07:56;1.98;;;1.40;;
57893;SDS011;43710;47.460;19.034;2023-04-12T14:10:58;7.10;;;1.60;;
57893;SDS011;43710;47.460;19.034;2023-04-12T14:14:01;4.18;;;1.70;;
57893;SDS011;43710;47.460;19.034;2023-04-12T14:17:03;6.05;;;1.73;;
57893;SDS011;43710;47.460;19.034;2023-04-12T14:20:05;4.68;;;1.60;;
57893;SDS011;43710;47.460;19.034;2023-04-12T14:23:11;2.90;;;1.70;;
57893;SDS011;43710;47.460;19.034;2023-04-12T14:26:13;2.08;;;1.40;;
57893;SDS011;43710;47.460;19.034;2023-04-12T14:29:19;3.22;;;1.70;;
57893;SDS011;43710;47.460;19.034;2023-04-12T14:32:22;2.95;;;1.58;;
57893;SDS011;43710;47.460;19.034;2023-04-12T14:35:24;3.20;;;1.70;;
57893;SDS011;43710;47.460;19.034;2023-04-12T14:38:26;3.65;;;1.50;;
57893;SDS011;43710;47.460;19.034;2023-04-12T14:41:29;3.62;;;1.40;;
57893;SDS011;43710;47.460;19.034;2023-04-12T14:44:32;4.95;;;1.80;;
57893;SDS011;43710;47.460;19.034;2023-04-12T14:47:34;3.67;;;1.70;;
57893;SDS011;43710;47.460;19.034;2023-04-12T14:50:37;2.87;;;1.55;;
57893;SDS011;43710;47.460;19.034;2023-04-12T14:53:40;4.05;;;1.75;;
57893;SDS011;43710;47.460;19.034;2023-04-12T14:56:44;5.87;;;1.70;;
57893;SDS011;43710;47.460;19.034;2023-04-12T14:59:54;5.45;;;1.70;;
57893;SDS011;43710;47.460;19.034;2023-04-12T15:02:57;4.07;;;1.52;;
57893;SDS011;43710;47.460;19.034;2023-04-12T15:06:02;3.08;;;2.00;;
57893;SDS011;43710;47.460;19.034;2023-04-12T15:09:04;4.75;;;1.87;;
57893;SDS011;43710;47.460;19.034;2023-04-12T15:12:07;4.78;;;2.12;;
57893;SDS011;43710;47.460;19.034;2023-04-12T15:15:10;3.60;;;1.65;;
57893;SDS011;43710;47.460;19.034;2023-04-12T15:18:13;3.50;;;2.10;;
57893;SDS011;43710;47.460;19.034;2023-04-12T15:21:16;3.62;;;1.92;;
57893;SDS011;43710;47.460;19.034;2023-04-12T15:24:18;4.22;;;1.95;;
57893;SDS011;43710;47.460;19.034;2023-04-12T15:30:27;5.45;;;2.35;;
57893;SDS011;43710;47.460;19.034;2023-04-12T15:33:29;4.20;;;1.87;;
57893;SDS011;43710;47.460;19.034;2023-04-12T15:36:35;5.75;;;2.20;;
57893;SDS011;43710;47.460;19.034;2023-04-12T15:39:37;6.57;;;2.08;;
57893;SDS011;43710;47.460;19.034;2023-04-12T15:42:41;4.78;;;2.30;;
57893;SDS011;43710;47.460;19.034;2023-04-12T15:45:44;3.53;;;2.03;;
57893;SDS011;43710;47.460;19.034;2023-04-12T15:48:46;3.97;;;1.87;;
